Flugplatz Korbach

Für EDGK sind keine METAR/TAF Berichte vorhanden.
Es werden die Flugwettermeldungen vom Flugplatz Fritzlar Airport in 32 km Entfernung angezeigt.

Bericht für ETHF

vom 31.05. um 09:20 UTC

Wind 4 kt aus 50°

Sichtweite 10 km oder mehr

gering bewölkt in 4500 ft

aufgelockert bewölkt in 13000 ft

Temperatur 16.0°C

Taupunkt 4.0°C

Luftfeuchtigkeit 45%

Luftdruck 1023 hPa

ETHF 310920Z 05004KT 9999 FEW045 SCT130 16/04 Q1023 BLU+
Keine Prognose (TAF) verfügbar.
Impressum